sensor_id;sensor_type;location;lat;lon;timestamp;pressure;altitude;pressure_sealevel;temperature;humidity
55470;BME280;41334;47.872;16.384;2023-08-06T00:01:07;97857.88;;;14.60;82.10
55470;BME280;41334;47.872;16.384;2023-08-06T00:06:09;97860.50;;;14.46;82.42
55470;BME280;41334;47.872;16.384;2023-08-06T00:11:11;97864.41;;;14.41;82.33
55470;BME280;41334;47.872;16.384;2023-08-06T00:16:14;97848.91;;;14.44;81.23
55470;BME280;41334;47.872;16.384;2023-08-06T00:21:16;97850.16;;;14.46;81.49
55470;BME280;41334;47.872;16.384;2023-08-06T00:26:18;97851.88;;;14.28;82.87
55470;BME280;41334;47.872;16.384;2023-08-06T00:31:20;97843.50;;;14.24;82.68
55470;BME280;41334;47.872;16.384;2023-08-06T00:36:21;97849.84;;;14.25;82.15
55470;BME280;41334;47.872;16.384;2023-08-06T00:41:23;97851.88;;;14.28;82.46
55470;BME280;41334;47.872;16.384;2023-08-06T00:46:26;97838.38;;;14.30;81.50
55470;BME280;41334;47.872;16.384;2023-08-06T00:51:29;97833.97;;;14.29;81.47
55470;BME280;41334;47.872;16.384;2023-08-06T00:56:32;97830.78;;;14.27;81.60
55470;BME280;41334;47.872;16.384;2023-08-06T01:01:37;97839.38;;;14.18;81.87
55470;BME280;41334;47.872;16.384;2023-08-06T01:06:39;97832.16;;;14.14;82.33
55470;BME280;41334;47.872;16.384;2023-08-06T01:16:45;97820.53;;;14.08;81.60
55470;BME280;41334;47.872;16.384;2023-08-06T01:21:47;97819.75;;;14.08;81.48
55470;BME280;41334;47.872;16.384;2023-08-06T01:26:57;97817.72;;;14.05;81.79
55470;BME280;41334;47.872;16.384;2023-08-06T01:32:04;97808.50;;;14.01;82.12
55470;BME280;41334;47.872;16.384;2023-08-06T01:37:06;97815.66;;;14.02;81.77
55470;BME280;41334;47.872;16.384;2023-08-06T01:42:09;97803.66;;;13.97;81.71
55470;BME280;41334;47.872;16.384;2023-08-06T01:47:11;97802.06;;;13.96;81.79
55470;BME280;41334;47.872;16.384;2023-08-06T01:52:13;97794.03;;;13.91;81.84
55470;BME280;41334;47.872;16.384;2023-08-06T01:57:14;97789.72;;;13.94;81.49
55470;BME280;41334;47.872;16.384;2023-08-06T02:02:16;97784.50;;;13.92;80.84
55470;BME280;41334;47.872;16.384;2023-08-06T02:07:18;97785.69;;;13.91;80.33
55470;BME280;41334;47.872;16.384;2023-08-06T02:12:21;97795.63;;;13.92;80.49
55470;BME280;41334;47.872;16.384;2023-08-06T02:17:25;97794.03;;;13.91;80.01
55470;BME280;41334;47.872;16.384;2023-08-06T02:22:27;97775.72;;;13.90;79.88
55470;BME280;41334;47.872;16.384;2023-08-06T02:27:29;97768.56;;;13.89;79.76
55470;BME280;41334;47.872;16.384;2023-08-06T02:32:31;97753.84;;;13.89;79.50
55470;BME280;41334;47.872;16.384;2023-08-06T02:37:34;97749.13;;;13.93;79.09
55470;BME280;41334;47.872;16.384;2023-08-06T02:42:36;97733.22;;;13.93;78.70
55470;BME280;41334;47.872;16.384;2023-08-06T02:47:38;97740.31;;;13.91;79.00
55470;BME280;41334;47.872;16.384;2023-08-06T02:52:40;97751.47;;;13.91;78.86
55470;BME280;41334;47.872;16.384;2023-08-06T02:57:49;97768.97;;;13.91;78.96
55470;BME280;41334;47.872;16.384;2023-08-06T03:02:52;97760.69;;;13.95;78.45
55470;BME280;41334;47.872;16.384;2023-08-06T03:08:02;97757.09;;;13.94;78.25
55470;BME280;41334;47.872;16.384;2023-08-06T03:13:05;97739.91;;;13.89;78.02
55470;BME280;41334;47.872;16.384;2023-08-06T03:18:07;97745.50;;;13.92;78.30
55470;BME280;41334;47.872;16.384;2023-08-06T03:23:09;97732.03;;;13.94;77.40
55470;BME280;41334;47.872;16.384;2023-08-06T03:28:11;97728.81;;;13.92;78.00
55470;BME280;41334;47.872;16.384;2023-08-06T03:33:13;97740.38;;;13.94;77.72
55470;BME280;41334;47.872;16.384;2023-08-06T03:38:15;97716.06;;;13.91;77.88
55470;BME280;41334;47.872;16.384;2023-08-06T03:43:17;97704.94;;;13.91;77.37
55470;BME280;41334;47.872;16.384;2023-08-06T03:48:20;97714.53;;;13.94;76.67
55470;BME280;41334;47.872;16.384;2023-08-06T03:53:22;97705.78;;;13.95;76.49
55470;BME280;41334;47.872;16.384;2023-08-06T03:58:24;97703.41;;;13.97;76.40
55470;BME280;41334;47.872;16.384;2023-08-06T04:03:26;97708.31;;;14.04;76.00
55470;BME280;41334;47.872;16.384;2023-08-06T04:08:29;97702.81;;;14.11;75.20
55470;BME280;41334;47.872;16.384;2023-08-06T04:13:30;97705.69;;;14.18;74.83
55470;BME280;41334;47.872;16.384;2023-08-06T04:18:32;97728.06;;;14.26;74.47
55470;BME280;41334;47.872;16.384;2023-08-06T04:23:34;97711.44;;;14.33;74.23
55470;BME280;41334;47.872;16.384;2023-08-06T04:28:40;97710.28;;;14.37;74.06
55470;BME280;41334;47.872;16.384;2023-08-06T04:33:43;97717.88;;;14.40;74.16
55470;BME280;41334;47.872;16.384;2023-08-06T04:38:47;97711.91;;;14.38;74.23
55470;BME280;41334;47.872;16.384;2023-08-06T04:43:50;97706.31;;;14.38;73.84
55470;BME280;41334;47.872;16.384;2023-08-06T04:48:52;97703.94;;;14.40;73.72
55470;BME280;41334;47.872;16.384;2023-08-06T04:53:54;97715.13;;;14.44;73.41
55470;BME280;41334;47.872;16.384;2023-08-06T04:58:56;97728.75;;;14.49;72.91
55470;BME280;41334;47.872;16.384;2023-08-06T05:03:59;97716.41;;;14.50;73.21
55470;BME280;41334;47.872;16.384;2023-08-06T05:09:00;97715.69;;;14.57;72.92
55470;BME280;41334;47.872;16.384;2023-08-06T05:14:02;97698.25;;;14.67;72.35
55470;BME280;41334;47.872;16.384;2023-08-06T05:19:04;97711.84;;;14.68;72.00
55470;BME280;41334;47.872;16.384;2023-08-06T05:24:06;97706.41;;;14.79;71.48
55470;BME280;41334;47.872;16.384;2023-08-06T05:29:08;97720.91;;;14.95;71.03
55470;BME280;41334;47.872;16.384;2023-08-06T05:34:10;97723.00;;;15.09;70.40
55470;BME280;41334;47.872;16.384;2023-08-06T05:39:11;97734.53;;;15.04;71.38
55470;BME280;41334;47.872;16.384;2023-08-06T05:44:13;97729.44;;;15.13;71.08
55470;BME280;41334;47.872;16.384;2023-08-06T05:49:15;97732.72;;;15.22;70.82
55470;BME280;41334;47.872;16.384;2023-08-06T05:54:17;97741.88;;;15.23;70.94
55470;BME280;41334;47.872;16.384;2023-08-06T05:59:19;97745.88;;;15.25;71.05
55470;BME280;41334;47.872;16.384;2023-08-06T06:04:21;97747.59;;;15.37;70.98
55470;BME280;41334;47.872;16.384;2023-08-06T06:09:23;97757.88;;;15.26;71.51
55470;BME280;41334;47.872;16.384;2023-08-06T06:14:25;97775.75;;;15.21;71.58
55470;BME280;41334;47.872;16.384;2023-08-06T06:19:26;97755.06;;;15.26;71.46
55470;BME280;41334;47.872;16.384;2023-08-06T06:24:30;97750.22;;;15.19;72.75
55470;BME280;41334;47.872;16.384;2023-08-06T06:29:32;97731.91;;;15.25;72.77
55470;BME280;41334;47.872;16.384;2023-08-06T06:34:36;97714.16;;;15.44;72.43
55470;BME280;41334;47.872;16.384;2023-08-06T06:39:38;97720.22;;;15.57;71.95
55470;BME280;41334;47.872;16.384;2023-08-06T06:44:40;97713.19;;;15.74;71.47
55470;BME280;41334;47.872;16.384;2023-08-06T06:49:42;97729.56;;;15.75;70.75
55470;BME280;41334;47.872;16.384;2023-08-06T06:54:44;97740.84;;;15.90;70.39
55470;BME280;41334;47.872;16.384;2023-08-06T06:59:46;97732.38;;;15.79;69.66
55470;BME280;41334;47.872;16.384;2023-08-06T07:04:49;97738.84;;;15.94;70.01
55470;BME280;41334;47.872;16.384;2023-08-06T07:09:51;97747.78;;;16.24;67.82
55470;BME280;41334;47.872;16.384;2023-08-06T07:14:53;97753.41;;;16.28;67.33
55470;BME280;41334;47.872;16.384;2023-08-06T07:19:55;97756.63;;;16.33;67.13
55470;BME280;41334;47.872;16.384;2023-08-06T07:24:57;97741.50;;;16.38;66.01
55470;BME280;41334;47.872;16.384;2023-08-06T07:29:59;97733.13;;;16.49;65.15
55470;BME280;41334;47.872;16.384;2023-08-06T07:35:01;97741.25;;;16.79;64.26
55470;BME280;41334;47.872;16.384;2023-08-06T07:40:05;97725.28;;;16.87;63.51
55470;BME280;41334;47.872;16.384;2023-08-06T07:45:07;97726.91;;;17.16;62.54
55470;BME280;41334;47.872;16.384;2023-08-06T07:50:09;97729.34;;;17.25;60.89
55470;BME280;41334;47.872;16.384;2023-08-06T07:55:11;97733.34;;;17.84;60.54
55470;BME280;41334;47.872;16.384;2023-08-06T08:00:13;97742.13;;;17.44;60.56
55470;BME280;41334;47.872;16.384;2023-08-06T08:05:15;97725.72;;;17.28;60.94
55470;BME280;41334;47.872;16.384;2023-08-06T08:10:17;97723.72;;;17.21;60.16
55470;BME280;41334;47.872;16.384;2023-08-06T08:15:20;97723.31;;;17.58;61.07
55470;BME280;41334;47.872;16.384;2023-08-06T08:20:22;97714.13;;;17.22;60.47
55470;BME280;41334;47.872;16.384;2023-08-06T08:25:23;97715.34;;;17.64;59.72
55470;BME280;41334;47.872;16.384;2023-08-06T08:30:25;97706.13;;;17.74;59.37
55470;BME280;41334;47.872;16.384;2023-08-06T08:35:28;97714.50;;;17.96;58.74
55470;BME280;41334;47.872;16.384;2023-08-06T08:40:32;97729.16;;;18.53;57.70
55470;BME280;41334;47.872;16.384;2023-08-06T08:45:39;97733.19;;;18.41;57.18
55470;BME280;41334;47.872;16.384;2023-08-06T08:50:44;97736.72;;;18.63;56.16
55470;BME280;41334;47.872;16.384;2023-08-06T08:55:49;97739.09;;;18.72;55.81
55470;BME280;41334;47.872;16.384;2023-08-06T09:00:51;97739.78;;;18.87;55.80
55470;BME280;41334;47.872;16.384;2023-08-06T09:05:54;97733.91;;;18.63;56.38
55470;BME280;41334;47.872;16.384;2023-08-06T09:11:01;97759.28;;;18.24;56.85
55470;BME280;41334;47.872;16.384;2023-08-06T09:16:04;97758.13;;;17.86;58.39
55470;BME280;41334;47.872;16.384;2023-08-06T09:21:13;97762.97;;;17.71;58.16
55470;BME280;41334;47.872;16.384;2023-08-06T09:26:16;97764.53;;;17.29;59.05
55470;BME280;41334;47.872;16.384;2023-08-06T09:31:17;97765.75;;;17.28;58.47
55470;BME280;41334;47.872;16.384;2023-08-06T09:36:19;97783.31;;;17.07;59.71
55470;BME280;41334;47.872;16.384;2023-08-06T09:41:26;97770.06;;;16.97;59.61
55470;BME280;41334;47.872;16.384;2023-08-06T09:46:32;97764.00;;;16.74;60.40
55470;BME280;41334;47.872;16.384;2023-08-06T09:51:34;97773.19;;;16.71;60.77
55470;BME280;41334;47.872;16.384;2023-08-06T09:56:37;97769.19;;;16.68;59.73
55470;BME280;41334;47.872;16.384;2023-08-06T10:01:39;97765.63;;;16.82;59.48
55470;BME280;41334;47.872;16.384;2023-08-06T10:06:42;97768.81;;;16.77;59.28
55470;BME280;41334;47.872;16.384;2023-08-06T10:11:50;97763.50;;;16.50;59.88
55470;BME280;41334;47.872;16.384;2023-08-06T10:16:57;97765.59;;;16.75;59.97
55470;BME280;41334;47.872;16.384;2023-08-06T10:22:11;97784.06;;;16.94;58.72
55470;BME280;41334;47.872;16.384;2023-08-06T10:27:19;97787.31;;;17.14;57.87
55470;BME280;41334;47.872;16.384;2023-08-06T10:32:47;97799.34;;;17.28;57.80
55470;BME280;41334;47.872;16.384;2023-08-06T10:37:50;97797.75;;;17.42;57.30
55470;BME280;41334;47.872;16.384;2023-08-06T10:42:52;97799.78;;;17.73;56.80
55470;BME280;41334;47.872;16.384;2023-08-06T10:47:55;97798.94;;;17.58;55.60
55470;BME280;41334;47.872;16.384;2023-08-06T10:53:04;97802.59;;;17.62;56.18
55470;BME280;41334;47.872;16.384;2023-08-06T10:58:07;97798.16;;;17.76;55.07
55470;BME280;41334;47.872;16.384;2023-08-06T11:03:09;97816.19;;;18.10;53.12
55470;BME280;41334;47.872;16.384;2023-08-06T11:08:12;97816.03;;;18.78;53.20
55470;BME280;41334;47.872;16.384;2023-08-06T11:13:17;97821.13;;;19.01;52.82
55470;BME280;41334;47.872;16.384;2023-08-06T11:18:20;97822.34;;;18.97;52.02
55470;BME280;41334;47.872;16.384;2023-08-06T11:23:22;97828.81;;;18.93;51.76
55470;BME280;41334;47.872;16.384;2023-08-06T11:28:24;97822.41;;;18.82;51.25
55470;BME280;41334;47.872;16.384;2023-08-06T11:33:26;97820.44;;;18.76;51.77
55470;BME280;41334;47.872;16.384;2023-08-06T11:38:28;97823.69;;;18.63;51.87
55470;BME280;41334;47.872;16.384;2023-08-06T11:43:31;97826.16;;;18.51;50.81
55470;BME280;41334;47.872;16.384;2023-08-06T11:48:50;97836.16;;;18.34;51.22
55470;BME280;41334;47.872;16.384;2023-08-06T11:53:56;97834.16;;;18.49;51.18
55470;BME280;41334;47.872;16.384;2023-08-06T11:58:58;97845.38;;;18.24;50.99
55470;BME280;41334;47.872;16.384;2023-08-06T12:04:00;97842.19;;;18.22;52.44
55470;BME280;41334;47.872;16.384;2023-08-06T12:09:02;97865.41;;;18.47;51.41
55470;BME280;41334;47.872;16.384;2023-08-06T12:14:04;97866.59;;;18.39;52.87
55470;BME280;41334;47.872;16.384;2023-08-06T12:19:06;97871.78;;;18.65;51.70
55470;BME280;41334;47.872;16.384;2023-08-06T12:24:08;97864.88;;;18.95;52.46
55470;BME280;41334;47.872;16.384;2023-08-06T12:29:11;97874.44;;;19.08;51.49
55470;BME280;41334;47.872;16.384;2023-08-06T12:34:13;97865.34;;;18.83;52.63
55470;BME280;41334;47.872;16.384;2023-08-06T12:39:15;97881.53;;;19.41;50.59
55470;BME280;41334;47.872;16.384;2023-08-06T12:44:17;97876.06;;;19.09;52.70
55470;BME280;41334;47.872;16.384;2023-08-06T12:49:19;97872.16;;;19.62;50.25
55470;BME280;41334;47.872;16.384;2023-08-06T12:54:22;97873.56;;;19.33;51.51
55470;BME280;41334;47.872;16.384;2023-08-06T12:59:24;97879.00;;;19.61;50.36
55470;BME280;41334;47.872;16.384;2023-08-06T13:04:26;97884.22;;;20.18;49.64
55470;BME280;41334;47.872;16.384;2023-08-06T13:09:29;97866.94;;;20.20;49.43
55470;BME280;41334;47.872;16.384;2023-08-06T13:14:34;97865.66;;;20.28;49.30
55470;BME280;41334;47.872;16.384;2023-08-06T13:19:36;97867.41;;;20.94;47.22
55470;BME280;41334;47.872;16.384;2023-08-06T13:24:38;97870.69;;;20.85;46.95
55470;BME280;41334;47.872;16.384;2023-08-06T13:29:40;97873.81;;;21.29;45.78
55470;BME280;41334;47.872;16.384;2023-08-06T13:34:42;97880.47;;;21.42;46.68
55470;BME280;41334;47.872;16.384;2023-08-06T13:39:44;97877.00;;;21.31;46.06
55470;BME280;41334;47.872;16.384;2023-08-06T13:44:45;97882.34;;;20.91;45.58
55470;BME280;41334;47.872;16.384;2023-08-06T13:49:47;97888.88;;;20.77;44.75
55470;BME280;41334;47.872;16.384;2023-08-06T13:54:50;97888.97;;;20.70;45.12
55470;BME280;41334;47.872;16.384;2023-08-06T13:59:52;97896.31;;;20.98;45.42
55470;BME280;41334;47.872;16.384;2023-08-06T14:04:54;97910.81;;;20.59;47.42
55470;BME280;41334;47.872;16.384;2023-08-06T14:09:56;97922.53;;;20.50;46.24
55470;BME280;41334;47.872;16.384;2023-08-06T14:14:59;97928.38;;;20.25;46.48
55470;BME280;41334;47.872;16.384;2023-08-06T14:20:01;97925.41;;;19.87;44.72
55470;BME280;41334;47.872;16.384;2023-08-06T14:25:05;97923.00;;;19.05;49.19
55470;BME280;41334;47.872;16.384;2023-08-06T14:30:08;97933.97;;;19.62;48.76
55470;BME280;41334;47.872;16.384;2023-08-06T14:35:10;97942.63;;;19.09;49.14
55470;BME280;41334;47.872;16.384;2023-08-06T14:40:18;97935.03;;;19.06;50.89
55470;BME280;41334;47.872;16.384;2023-08-06T14:45:19;97941.13;;;19.81;48.72
55470;BME280;41334;47.872;16.384;2023-08-06T14:50:23;97960.38;;;20.42;47.93
55470;BME280;41334;47.872;16.384;2023-08-06T14:55:25;97958.28;;;19.97;48.86
55470;BME280;41334;47.872;16.384;2023-08-06T15:00:27;97949.34;;;20.10;49.34
55470;BME280;41334;47.872;16.384;2023-08-06T15:05:29;97956.69;;;19.96;45.53
55470;BME280;41334;47.872;16.384;2023-08-06T15:10:31;97966.78;;;19.87;47.55
55470;BME280;41334;47.872;16.384;2023-08-06T15:15:34;97960.53;;;20.24;46.26
55470;BME280;41334;47.872;16.384;2023-08-06T15:20:36;97977.28;;;19.79;47.34
55470;BME280;41334;47.872;16.384;2023-08-06T15:25:38;97978.81;;;19.91;47.22
55470;BME280;41334;47.872;16.384;2023-08-06T15:30:40;97971.13;;;19.98;46.61
55470;BME280;41334;47.872;16.384;2023-08-06T15:35:49;97963.75;;;20.22;44.89
55470;BME280;41334;47.872;16.384;2023-08-06T15:40:51;97960.69;;;20.55;43.48
55470;BME280;41334;47.872;16.384;2023-08-06T15:45:53;97966.41;;;20.89;42.16
55470;BME280;41334;47.872;16.384;2023-08-06T15:50:58;97964.47;;;20.34;43.56
55470;BME280;41334;47.872;16.384;2023-08-06T15:56:01;97971.75;;;20.28;45.81
55470;BME280;41334;47.872;16.384;2023-08-06T16:01:04;97980.75;;;20.01;44.16
55470;BME280;41334;47.872;16.384;2023-08-06T16:06:05;97989.44;;;19.55;46.38
55470;BME280;41334;47.872;16.384;2023-08-06T16:11:09;97981.09;;;19.30;47.63
55470;BME280;41334;47.872;16.384;2023-08-06T16:16:11;97993.03;;;19.55;48.09
55470;BME280;41334;47.872;16.384;2023-08-06T16:21:13;98000.25;;;19.60;46.80
55470;BME280;41334;47.872;16.384;2023-08-06T16:26:14;97994.59;;;19.67;46.55
55470;BME280;41334;47.872;16.384;2023-08-06T16:31:17;98001.56;;;19.23;47.14
55470;BME280;41334;47.872;16.384;2023-08-06T16:36:19;97991.19;;;19.02;47.75
55470;BME280;41334;47.872;16.384;2023-08-06T16:41:21;97996.84;;;18.88;47.62
55470;BME280;41334;47.872;16.384;2023-08-06T16:46:26;98009.97;;;19.19;47.64
55470;BME280;41334;47.872;16.384;2023-08-06T16:51:28;98025.53;;;19.56;46.69
55470;BME280;41334;47.872;16.384;2023-08-06T16:56:29;98028.34;;;19.63;46.63
55470;BME280;41334;47.872;16.384;2023-08-06T17:01:31;98040.44;;;19.46;46.66
55470;BME280;41334;47.872;16.384;2023-08-06T17:06:34;98032.84;;;19.39;47.08
55470;BME280;41334;47.872;16.384;2023-08-06T17:11:36;98034.09;;;19.06;47.10
55470;BME280;41334;47.872;16.384;2023-08-06T17:16:38;98040.91;;;18.98;48.03
55470;BME280;41334;47.872;16.384;2023-08-06T17:21:40;98034.94;;;18.89;48.70
55470;BME280;41334;47.872;16.384;2023-08-06T17:26:41;98033.69;;;18.97;47.94
55470;BME280;41334;47.872;16.384;2023-08-06T17:31:43;98034.88;;;18.28;48.86
55470;BME280;41334;47.872;16.384;2023-08-06T17:36:45;98045.69;;;18.19;50.04
55470;BME280;41334;47.872;16.384;2023-08-06T17:41:47;98060.84;;;18.07;50.46
55470;BME280;41334;47.872;16.384;2023-08-06T17:46:49;98059.91;;;17.64;50.78
55470;BME280;41334;47.872;16.384;2023-08-06T17:51:51;98062.22;;;17.44;49.59
55470;BME280;41334;47.872;16.384;2023-08-06T17:56:53;98061.63;;;17.14;50.58
55470;BME280;41334;47.872;16.384;2023-08-06T18:01:59;98067.53;;;17.05;51.56
55470;BME280;41334;47.872;16.384;2023-08-06T18:07:02;98063.34;;;16.77;51.66
55470;BME280;41334;47.872;16.384;2023-08-06T18:12:04;98076.72;;;16.57;51.87
55470;BME280;41334;47.872;16.384;2023-08-06T18:17:06;98075.06;;;16.49;52.21
55470;BME280;41334;47.872;16.384;2023-08-06T18:22:08;98084.19;;;16.43;53.18
55470;BME280;41334;47.872;16.384;2023-08-06T18:27:10;98095.34;;;16.39;52.71
55470;BME280;41334;47.872;16.384;2023-08-06T18:32:19;98086.16;;;16.39;52.25
55470;BME280;41334;47.872;16.384;2023-08-06T18:37:22;98092.94;;;16.38;52.45
55470;BME280;41334;47.872;16.384;2023-08-06T18:42:24;98097.25;;;16.28;51.69
55470;BME280;41334;47.872;16.384;2023-08-06T18:47:27;98112.00;;;16.28;52.07
55470;BME280;41334;47.872;16.384;2023-08-06T18:52:29;98115.94;;;16.24;52.69
55470;BME280;41334;47.872;16.384;2023-08-06T18:57:31;98129.75;;;16.10;52.71
55470;BME280;41334;47.872;16.384;2023-08-06T19:02:33;98149.19;;;15.99;52.99
55470;BME280;41334;47.872;16.384;2023-08-06T19:07:35;98157.81;;;15.87;54.04
55470;BME280;41334;47.872;16.384;2023-08-06T19:12:37;98166.16;;;15.83;54.21
55470;BME280;41334;47.872;16.384;2023-08-06T19:17:38;98172.06;;;15.78;54.42
55470;BME280;41334;47.872;16.384;2023-08-06T19:22:40;98184.38;;;15.73;55.62
55470;BME280;41334;47.872;16.384;2023-08-06T19:27:42;98190.31;;;15.45;57.79
55470;BME280;41334;47.872;16.384;2023-08-06T19:32:45;98189.66;;;15.29;58.39
55470;BME280;41334;47.872;16.384;2023-08-06T19:37:47;98188.19;;;15.12;58.40
55470;BME280;41334;47.872;16.384;2023-08-06T19:42:49;98176.06;;;15.01;58.21
55470;BME280;41334;47.872;16.384;2023-08-06T19:47:51;98179.66;;;15.01;55.48
55470;BME280;41334;47.872;16.384;2023-08-06T19:52:56;98172.03;;;14.98;54.91
55470;BME280;41334;47.872;16.384;2023-08-06T19:57:58;98177.69;;;14.79;55.60
55470;BME280;41334;47.872;16.384;2023-08-06T20:02:59;98178.66;;;14.67;55.34
55470;BME280;41334;47.872;16.384;2023-08-06T20:08:01;98173.06;;;14.67;54.80
55470;BME280;41334;47.872;16.384;2023-08-06T20:13:03;98160.88;;;14.56;54.68
55470;BME280;41334;47.872;16.384;2023-08-06T20:18:05;98155.50;;;14.44;54.80
55470;BME280;41334;47.872;16.384;2023-08-06T20:23:07;98153.69;;;14.32;55.21
55470;BME280;41334;47.872;16.384;2023-08-06T20:28:09;98158.69;;;14.23;55.57
55470;BME280;41334;47.872;16.384;2023-08-06T20:33:11;98172.19;;;14.21;55.38
55470;BME280;41334;47.872;16.384;2023-08-06T20:38:13;98173.69;;;14.18;55.68
55470;BME280;41334;47.872;16.384;2023-08-06T20:43:15;98177.66;;;14.17;56.28
55470;BME280;41334;47.872;16.384;2023-08-06T20:48:17;98160.97;;;14.17;55.44
55470;BME280;41334;47.872;16.384;2023-08-06T20:53:19;98151.56;;;14.26;54.70
55470;BME280;41334;47.872;16.384;2023-08-06T20:58:23;98151.78;;;14.17;55.72
55470;BME280;41334;47.872;16.384;2023-08-06T21:03:26;98161.84;;;14.21;54.34
55470;BME280;41334;47.872;16.384;2023-08-06T21:08:30;98157.66;;;14.31;53.33
55470;BME280;41334;47.872;16.384;2023-08-06T21:13:33;98157.06;;;14.22;53.18
55470;BME280;41334;47.872;16.384;2023-08-06T21:18:34;98166.75;;;14.28;52.58
55470;BME280;41334;47.872;16.384;2023-08-06T21:23:36;98176.66;;;14.26;52.62
55470;BME280;41334;47.872;16.384;2023-08-06T21:28:38;98189.50;;;14.30;52.56
55470;BME280;41334;47.872;16.384;2023-08-06T21:33:41;98182.72;;;14.31;51.67
55470;BME280;41334;47.872;16.384;2023-08-06T21:38:44;98192.31;;;14.34;51.88
55470;BME280;41334;47.872;16.384;2023-08-06T21:43:48;98196.06;;;14.41;51.08
55470;BME280;41334;47.872;16.384;2023-08-06T21:48:50;98195.66;;;14.20;52.60
55470;BME280;41334;47.872;16.384;2023-08-06T21:53:52;98205.03;;;14.12;52.96
55470;BME280;41334;47.872;16.384;2023-08-06T21:58:54;98192.13;;;14.23;52.04
55470;BME280;41334;47.872;16.384;2023-08-06T22:03:59;98210.81;;;14.22;52.86
55470;BME280;41334;47.872;16.384;2023-08-06T22:09:01;98203.56;;;14.18;53.49
55470;BME280;41334;47.872;16.384;2023-08-06T22:14:03;98201.28;;;14.04;54.12
55470;BME280;41334;47.872;16.384;2023-08-06T22:19:05;98198.47;;;13.85;54.45
55470;BME280;41334;47.872;16.384;2023-08-06T22:24:07;98194.47;;;13.82;54.96
55470;BME280;41334;47.872;16.384;2023-08-06T22:29:10;98192.06;;;13.65;55.75
55470;BME280;41334;47.872;16.384;2023-08-06T22:34:12;98189.66;;;13.63;55.84
55470;BME280;41334;47.872;16.384;2023-08-06T22:39:14;98183.19;;;13.43;56.30
55470;BME280;41334;47.872;16.384;2023-08-06T22:44:16;98190.50;;;13.32;56.96
55470;BME280;41334;47.872;16.384;2023-08-06T22:49:18;98173.44;;;13.34;56.89
55470;BME280;41334;47.872;16.384;2023-08-06T22:54:20;98182.28;;;13.20;57.40
55470;BME280;41334;47.872;16.384;2023-08-06T22:59:24;98195.81;;;13.06;57.97
55470;BME280;41334;47.872;16.384;2023-08-06T23:04:26;98198.16;;;13.04;57.22
55470;BME280;41334;47.872;16.384;2023-08-06T23:09:29;98203.09;;;12.94;57.98
55470;BME280;41334;47.872;16.384;2023-08-06T23:14:31;98203.81;;;12.91;57.85
55470;BME280;41334;47.872;16.384;2023-08-06T23:19:33;98201.03;;;12.76;58.70
55470;BME280;41334;47.872;16.384;2023-08-06T23:24:35;98216.16;;;12.78;57.83
55470;BME280;41334;47.872;16.384;2023-08-06T23:29:37;98210.78;;;12.85;57.63
55470;BME280;41334;47.872;16.384;2023-08-06T23:34:42;98223.44;;;12.83;57.79
55470;BME280;41334;47.872;16.384;2023-08-06T23:39:54;98210.59;;;12.78;58.10
55470;BME280;41334;47.872;16.384;2023-08-06T23:44:57;98214.03;;;12.87;56.87
55470;BME280;41334;47.872;16.384;2023-08-06T23:49:59;98210.78;;;13.33;55.05
55470;BME280;41334;47.872;16.384;2023-08-06T23:55:00;98205.03;;;13.41;54.53
